createdAt,value
2022-10-04T00:05:06.517Z,44.70
2022-10-04T00:10:20.373Z,44.80
2022-10-04T00:15:26.722Z,44.80
2022-10-04T00:21:13.181Z,44.80
2022-10-04T00:27:11.992Z,45.10
2022-10-04T00:32:28.251Z,45.00
2022-10-04T00:37:56.996Z,45.00
2022-10-04T00:43:04.370Z,45.20
2022-10-04T00:48:32.832Z,45.10
2022-10-04T00:53:46.177Z,45.20
2022-10-04T00:59:15.979Z,45.10
2022-10-04T01:04:29.868Z,45.30
2022-10-04T01:09:37.318Z,45.30
2022-10-04T01:14:53.509Z,45.30
2022-10-04T01:19:57.204Z,45.30
2022-10-04T01:25:01.890Z,45.20
2022-10-04T01:30:09.655Z,45.30
2022-10-04T01:35:14.950Z,45.50
2022-10-04T01:40:19.677Z,45.60
2022-10-04T01:45:29.205Z,45.60
2022-10-04T01:50:35.694Z,45.70
2022-10-04T01:55:42.715Z,45.70
2022-10-04T02:00:51.539Z,45.70
2022-10-04T02:06:00.229Z,45.70
2022-10-04T02:11:06.672Z,45.60
2022-10-04T02:16:13.881Z,45.60
2022-10-04T02:21:18.803Z,45.60
2022-10-04T02:26:23.628Z,45.60
2022-10-04T02:31:46.531Z,45.60
2022-10-04T02:36:52.141Z,45.60
2022-10-04T02:42:01.415Z,45.60
2022-10-04T02:47:10.422Z,45.60
2022-10-04T02:52:17.439Z,45.60
2022-10-04T02:57:24.062Z,45.50
2022-10-04T03:02:30.516Z,45.40
2022-10-04T03:07:36.050Z,45.40
2022-10-04T03:12:41.562Z,46.20
2022-10-04T03:17:45.563Z,45.60
2022-10-04T03:22:52.256Z,45.60
2022-10-04T03:28:02.061Z,45.60
2022-10-04T03:33:07.213Z,45.50
2022-10-04T03:38:13.443Z,45.50
2022-10-04T03:43:18.885Z,45.50
2022-10-04T03:48:30.918Z,45.60
2022-10-04T03:53:40.270Z,45.60
2022-10-04T03:58:46.269Z,45.60
2022-10-04T04:03:58.272Z,45.60
2022-10-04T04:09:02.868Z,45.70
2022-10-04T04:14:13.502Z,45.80
2022-10-04T04:19:19.775Z,45.80
2022-10-04T04:24:27.809Z,45.70
2022-10-04T04:29:40.215Z,45.90
2022-10-04T04:34:53.042Z,46.00
2022-10-04T04:39:56.497Z,46.00
2022-10-04T04:45:04.685Z,46.00
2022-10-04T04:50:12.969Z,46.10
2022-10-04T04:55:20.001Z,46.60
2022-10-04T05:00:38.760Z,46.50
2022-10-04T05:05:47.348Z,46.30
2022-10-04T05:10:59.360Z,46.10
2022-10-04T05:16:05.470Z,46.00
2022-10-04T05:21:14.934Z,45.90
2022-10-04T05:26:25.673Z,45.90
2022-10-04T05:31:43.585Z,45.90
2022-10-04T05:37:03.333Z,45.90
2022-10-04T05:42:13.620Z,46.00
2022-10-04T05:47:23.912Z,46.00
2022-10-04T05:52:31.026Z,46.00
2022-10-04T05:57:45.376Z,46.10
2022-10-04T06:03:17.831Z,46.80
2022-10-04T06:08:35.430Z,46.10
2022-10-04T06:14:00.649Z,46.20
2022-10-04T06:19:26.952Z,46.10
2022-10-04T06:24:33.918Z,46.20
2022-10-04T06:29:41.036Z,46.10
2022-10-04T06:35:17.226Z,46.20
2022-10-04T06:40:36.605Z,46.30
2022-10-04T06:45:54.832Z,46.30
2022-10-04T06:51:06.894Z,46.30
2022-10-04T06:56:27.799Z,46.30
2022-10-04T07:01:33.087Z,46.30
2022-10-04T07:06:44.603Z,46.30
2022-10-04T07:11:52.011Z,46.20
2022-10-04T07:16:59.963Z,46.20
2022-10-04T07:22:16.016Z,46.20
2022-10-04T07:27:23.300Z,46.20
2022-10-04T07:32:30.103Z,46.20
2022-10-04T07:37:48.836Z,46.30
2022-10-04T07:42:59.901Z,46.30
2022-10-04T07:48:14.768Z,46.20
2022-10-04T07:53:22.507Z,46.30
2022-10-04T07:58:45.596Z,46.40
2022-10-04T08:04:12.828Z,46.60
2022-10-04T08:09:28.376Z,46.50
2022-10-04T08:14:52.576Z,46.50
2022-10-04T08:20:07.975Z,46.40
2022-10-04T08:25:21.858Z,46.30
2022-10-04T08:30:25.575Z,46.20
2022-10-04T08:35:37.161Z,46.20
2022-10-04T08:41:12.209Z,46.00
2022-10-04T08:46:53.130Z,45.80
2022-10-04T08:52:31.108Z,45.80
2022-10-04T08:57:55.279Z,45.80
2022-10-04T09:03:35.516Z,45.80
2022-10-04T09:09:19.641Z,45.70
2022-10-04T09:14:45.892Z,45.50
2022-10-04T09:20:13.898Z,45.60
2022-10-04T09:25:35.747Z,45.60
2022-10-04T09:30:53.534Z,45.70
2022-10-04T09:36:21.280Z,45.60
2022-10-04T09:41:40.217Z,45.50
2022-10-04T09:47:16.967Z,45.50
2022-10-04T09:52:37.199Z,45.50
2022-10-04T09:57:56.145Z,45.60
2022-10-04T10:03:35.528Z,45.70
2022-10-04T10:08:50.965Z,45.60
2022-10-04T10:14:15.989Z,45.90
2022-10-04T10:19:47.655Z,45.40
2022-10-04T10:25:16.628Z,45.00
2022-10-04T10:30:26.455Z,44.80
2022-10-04T10:35:43.391Z,45.30
2022-10-04T10:41:05.038Z,44.50
2022-10-04T10:46:23.561Z,43.60
2022-10-04T10:51:51.336Z,43.10
2022-10-04T10:57:05.698Z,42.60
2022-10-04T11:02:50.671Z,42.80
2022-10-04T11:08:04.804Z,42.60
2022-10-04T11:13:25.880Z,42.80
2022-10-04T11:19:07.377Z,42.00
2022-10-04T11:24:35.648Z,41.70
2022-10-04T11:29:59.733Z,41.10
2022-10-04T11:35:44.380Z,41.10
2022-10-04T11:41:07.330Z,41.00
2022-10-04T11:46:20.619Z,40.70
2022-10-04T11:51:50.485Z,40.40
2022-10-04T11:57:19.660Z,39.60
2022-10-04T12:03:02.798Z,39.50
2022-10-04T12:08:25.023Z,39.80
2022-10-04T12:13:44.971Z,39.90
2022-10-04T12:19:17.920Z,40.00
2022-10-04T12:25:13.943Z,39.70
2022-10-04T12:30:42.096Z,43.20
2022-10-04T12:35:57.740Z,40.50
2022-10-04T12:41:12.102Z,40.40
2022-10-04T12:46:29.908Z,40.30
2022-10-04T12:51:43.617Z,39.90
2022-10-04T12:56:51.688Z,39.50
2022-10-04T13:02:05.886Z,40.70
2022-10-04T13:07:38.207Z,39.70
2022-10-04T13:13:10.626Z,39.30
2022-10-04T13:18:24.632Z,38.90
2022-10-04T13:23:48.936Z,39.00
2022-10-04T13:29:02.923Z,38.90
2022-10-04T13:34:20.390Z,39.10
2022-10-04T13:39:48.487Z,38.80
2022-10-04T13:45:07.548Z,38.60
2022-10-04T13:50:30.899Z,38.70
2022-10-04T13:55:58.438Z,38.70
2022-10-04T14:01:27.226Z,39.20
2022-10-04T14:07:03.274Z,38.80
2022-10-04T14:12:40.251Z,38.60
2022-10-04T14:18:24.721Z,38.50
2022-10-04T14:24:03.777Z,38.60
2022-10-04T14:29:49.761Z,38.50
2022-10-04T14:34:58.396Z,38.40
2022-10-04T14:40:21.324Z,38.50
2022-10-04T14:45:38.470Z,38.30
2022-10-04T14:50:58.267Z,38.40
2022-10-04T14:56:32.620Z,38.30
2022-10-04T15:01:43.429Z,38.40
2022-10-04T15:06:50.091Z,38.50
2022-10-04T15:17:29.525Z,38.30
2022-10-04T15:22:41.843Z,38.00
2022-10-04T15:27:54.923Z,38.00
2022-10-04T15:33:30.405Z,37.80
2022-10-04T15:38:41.064Z,37.70
2022-10-04T15:43:49.262Z,38.10
2022-10-04T15:49:39.382Z,38.20
2022-10-04T15:55:05.351Z,37.70
2022-10-04T16:00:15.693Z,38.00
2022-10-04T16:05:26.856Z,38.00
2022-10-04T16:10:48.456Z,38.00
2022-10-04T16:16:26.361Z,38.20
2022-10-04T16:21:41.321Z,37.90
2022-10-04T16:27:13.765Z,38.10
2022-10-04T16:32:20.185Z,38.00
2022-10-04T16:37:36.264Z,38.40
2022-10-04T16:42:50.996Z,38.20
2022-10-04T16:47:58.746Z,38.40
2022-10-04T16:53:23.976Z,39.20
2022-10-04T16:58:53.600Z,39.20
2022-10-04T17:04:04.886Z,38.40
2022-10-04T17:09:18.877Z,38.70
2022-10-04T17:14:49.440Z,38.70
2022-10-04T17:20:00.465Z,38.70
2022-10-04T17:25:22.897Z,38.90
2022-10-04T17:30:28.991Z,39.00
2022-10-04T17:36:20.175Z,39.10
2022-10-04T17:41:36.291Z,39.20
2022-10-04T17:46:46.996Z,40.00
2022-10-04T17:52:11.562Z,39.60
2022-10-04T17:57:25.433Z,39.80
2022-10-04T18:02:45.656Z,39.90
2022-10-04T18:07:56.438Z,40.00
2022-10-04T18:13:06.971Z,40.20
2022-10-04T18:18:22.053Z,40.20
2022-10-04T18:23:28.451Z,40.40
2022-10-04T18:28:34.838Z,40.40
2022-10-04T18:33:50.471Z,40.40
2022-10-04T18:39:20.208Z,42.30
2022-10-04T18:44:30.449Z,41.30
2022-10-04T18:49:49.259Z,41.00
2022-10-04T18:55:05.142Z,41.30
2022-10-04T19:00:32.817Z,41.20
2022-10-04T19:05:52.556Z,41.30
2022-10-04T19:11:05.051Z,41.40
2022-10-04T19:16:22.112Z,41.50
2022-10-04T19:21:35.813Z,41.90
2022-10-04T19:26:42.987Z,41.80
2022-10-04T19:31:56.301Z,41.70
2022-10-04T19:37:09.745Z,42.20
2022-10-04T19:42:17.676Z,42.20
2022-10-04T19:47:35.460Z,42.10
2022-10-04T19:52:45.593Z,42.50
2022-10-04T19:57:53.847Z,42.40
2022-10-04T20:02:59.254Z,42.50
2022-10-04T20:08:05.562Z,42.50
2022-10-04T20:13:25.328Z,42.50
2022-10-04T20:19:11.058Z,43.00
2022-10-04T20:24:20.415Z,43.20
2022-10-04T20:30:06.727Z,43.10
2022-10-04T20:35:13.910Z,43.40
2022-10-04T20:40:45.038Z,43.20
2022-10-04T20:45:50.475Z,43.80
2022-10-04T20:50:54.670Z,43.30
2022-10-04T20:56:19.346Z,43.30
2022-10-04T21:01:44.271Z,44.00
2022-10-04T21:06:54.477Z,43.60
2022-10-04T21:12:00.826Z,44.20
2022-10-04T21:17:05.786Z,44.00
2022-10-04T21:22:11.409Z,44.10
2022-10-04T21:27:28.920Z,44.20
2022-10-04T21:32:41.354Z,44.90
2022-10-04T21:37:44.824Z,44.60
2022-10-04T21:42:49.576Z,44.30
2022-10-04T21:47:52.962Z,44.40
2022-10-04T21:52:57.461Z,44.40
2022-10-04T21:58:02.052Z,44.50
2022-10-04T22:03:05.472Z,44.60
2022-10-04T22:08:08.735Z,44.60
2022-10-04T22:13:13.392Z,44.60
2022-10-04T22:18:16.734Z,44.80
2022-10-04T22:23:22.039Z,44.70
2022-10-04T22:28:28.389Z,44.80
2022-10-04T22:33:35.525Z,45.20
2022-10-04T22:38:38.878Z,45.10
2022-10-04T22:43:44.389Z,44.90
2022-10-04T22:48:49.645Z,45.10
2022-10-04T22:53:52.882Z,45.10
2022-10-04T22:58:59.278Z,45.10
2022-10-04T23:04:02.647Z,45.20
2022-10-04T23:09:05.991Z,45.20
2022-10-04T23:14:10.990Z,45.10
2022-10-04T23:19:18.753Z,45.30
2022-10-04T23:24:24.475Z,45.30
2022-10-04T23:29:33.957Z,45.40
2022-10-04T23:34:39.017Z,45.60
2022-10-04T23:39:42.521Z,45.40
2022-10-04T23:44:49.536Z,45.40
2022-10-04T23:49:54.624Z,45.70
2022-10-04T23:54:58.124Z,45.70
